sensor_id;sensor_type;location;lat;lon;timestamp;temperature;humidity
75022;SHT31;63583;49.976;20.182;2023-04-25T00:02:10;11.21;93.27
75022;SHT31;63583;49.976;20.182;2023-04-25T00:04:36;11.08;93.64
75022;SHT31;63583;49.976;20.182;2023-04-25T00:07:03;11.18;93.52
75022;SHT31;63583;49.976;20.182;2023-04-25T00:09:29;11.08;93.82
75022;SHT31;63583;49.976;20.182;2023-04-25T00:11:55;11.10;93.82
75022;SHT31;63583;49.976;20.182;2023-04-25T00:14:21;11.11;94.05
75022;SHT31;63583;49.976;20.182;2023-04-25T00:16:46;11.06;94.41
75022;SHT31;63583;49.976;20.182;2023-04-25T00:19:13;11.12;94.10
75022;SHT31;63583;49.976;20.182;2023-04-25T00:21:39;11.01;94.24
75022;SHT31;63583;49.976;20.182;2023-04-25T00:24:07;11.06;94.31
75022;SHT31;63583;49.976;20.182;2023-04-25T00:26:34;11.01;94.34
75022;SHT31;63583;49.976;20.182;2023-04-25T00:29:00;11.15;94.02
75022;SHT31;63583;49.976;20.182;2023-04-25T00:31:26;10.99;94.26
75022;SHT31;63583;49.976;20.182;2023-04-25T00:33:52;11.01;94.44
75022;SHT31;63583;49.976;20.182;2023-04-25T00:36:18;11.06;94.12
75022;SHT31;63583;49.976;20.182;2023-04-25T00:38:44;11.15;93.59
75022;SHT31;63583;49.976;20.182;2023-04-25T00:41:10;11.24;93.18
75022;SHT31;63583;49.976;20.182;2023-04-25T00:43:36;11.07;94.16
75022;SHT31;63583;49.976;20.182;2023-04-25T00:46:02;11.08;94.48
75022;SHT31;63583;49.976;20.182;2023-04-25T00:48:28;11.01;94.68
75022;SHT31;63583;49.976;20.182;2023-04-25T00:50:57;11.03;94.69
75022;SHT31;63583;49.976;20.182;2023-04-25T00:53:25;10.96;93.36
75022;SHT31;63583;49.976;20.182;2023-04-25T00:55:51;10.79;93.73
75022;SHT31;63583;49.976;20.182;2023-04-25T00:58:18;10.60;94.10
75022;SHT31;63583;49.976;20.182;2023-04-25T01:00:45;10.43;94.42
75022;SHT31;63583;49.976;20.182;2023-04-25T01:03:15;10.39;94.61
75022;SHT31;63583;49.976;20.182;2023-04-25T01:05:42;10.31;94.55
75022;SHT31;63583;49.976;20.182;2023-04-25T01:08:08;10.19;95.19
75022;SHT31;63583;49.976;20.182;2023-04-25T01:10:34;10.09;95.49
75022;SHT31;63583;49.976;20.182;2023-04-25T01:12:59;10.02;95.88
75022;SHT31;63583;49.976;20.182;2023-04-25T01:15:25;9.97;96.16
75022;SHT31;63583;49.976;20.182;2023-04-25T01:17:51;9.95;96.09
75022;SHT31;63583;49.976;20.182;2023-04-25T01:20:16;9.83;96.49
75022;SHT31;63583;49.976;20.182;2023-04-25T01:22:43;9.88;96.47
75022;SHT31;63583;49.976;20.182;2023-04-25T01:25:08;9.73;96.98
75022;SHT31;63583;49.976;20.182;2023-04-25T01:27:36;9.80;96.86
75022;SHT31;63583;49.976;20.182;2023-04-25T01:30:02;9.81;96.83
75022;SHT31;63583;49.976;20.182;2023-04-25T01:32:29;9.77;96.93
75022;SHT31;63583;49.976;20.182;2023-04-25T01:34:57;9.76;96.97
75022;SHT31;63583;49.976;20.182;2023-04-25T01:37:22;9.69;97.39
75022;SHT31;63583;49.976;20.182;2023-04-25T01:39:48;9.76;96.98
75022;SHT31;63583;49.976;20.182;2023-04-25T01:42:15;9.64;97.38
75022;SHT31;63583;49.976;20.182;2023-04-25T01:44:41;9.74;96.90
75022;SHT31;63583;49.976;20.182;2023-04-25T01:47:07;9.71;97.07
75022;SHT31;63583;49.976;20.182;2023-04-25T01:49:32;9.66;96.90
75022;SHT31;63583;49.976;20.182;2023-04-25T01:51:58;9.54;97.32
75022;SHT31;63583;49.976;20.182;2023-04-25T01:54:23;9.67;97.08
75022;SHT31;63583;49.976;20.182;2023-04-25T01:56:50;9.63;96.84
75022;SHT31;63583;49.976;20.182;2023-04-25T01:59:16;9.59;97.03
75022;SHT31;63583;49.976;20.182;2023-04-25T02:01:42;9.64;96.61
75022;SHT31;63583;49.976;20.182;2023-04-25T02:04:07;9.63;96.52
75022;SHT31;63583;49.976;20.182;2023-04-25T02:06:33;9.61;96.97
75022;SHT31;63583;49.976;20.182;2023-04-25T02:08:58;9.60;96.81
75022;SHT31;63583;49.976;20.182;2023-04-25T02:11:24;9.61;96.64
75022;SHT31;63583;49.976;20.182;2023-04-25T02:13:50;9.61;96.87
75022;SHT31;63583;49.976;20.182;2023-04-25T02:16:15;9.57;96.60
75022;SHT31;63583;49.976;20.182;2023-04-25T02:18:41;9.53;96.94
75022;SHT31;63583;49.976;20.182;2023-04-25T02:21:07;9.50;96.58
75022;SHT31;63583;49.976;20.182;2023-04-25T02:23:33;9.54;96.62
75022;SHT31;63583;49.976;20.182;2023-04-25T02:25:59;9.47;96.71
75022;SHT31;63583;49.976;20.182;2023-04-25T02:28:25;9.46;96.49
75022;SHT31;63583;49.976;20.182;2023-04-25T02:30:52;9.44;96.82
75022;SHT31;63583;49.976;20.182;2023-04-25T02:33:17;9.43;96.94
75022;SHT31;63583;49.976;20.182;2023-04-25T02:35:43;9.40;96.84
75022;SHT31;63583;49.976;20.182;2023-04-25T02:38:08;9.33;96.18
75022;SHT31;63583;49.976;20.182;2023-04-25T02:40:34;9.28;95.23
75022;SHT31;63583;49.976;20.182;2023-04-25T02:42:59;9.26;95.63
75022;SHT31;63583;49.976;20.182;2023-04-25T02:45:25;9.30;96.09
75022;SHT31;63583;49.976;20.182;2023-04-25T02:47:51;9.23;95.87
75022;SHT31;63583;49.976;20.182;2023-04-25T02:50:16;9.23;96.44
75022;SHT31;63583;49.976;20.182;2023-04-25T02:52:43;9.29;95.50
75022;SHT31;63583;49.976;20.182;2023-04-25T02:55:13;9.26;95.72
75022;SHT31;63583;49.976;20.182;2023-04-25T02:57:38;9.25;95.76
75022;SHT31;63583;49.976;20.182;2023-04-25T03:00:04;9.22;95.56
75022;SHT31;63583;49.976;20.182;2023-04-25T03:02:30;9.20;95.98
75022;SHT31;63583;49.976;20.182;2023-04-25T03:04:56;9.12;96.31
75022;SHT31;63583;49.976;20.182;2023-04-25T03:07:22;9.14;96.71
75022;SHT31;63583;49.976;20.182;2023-04-25T03:09:47;9.09;96.52
75022;SHT31;63583;49.976;20.182;2023-04-25T03:12:13;9.15;96.79
75022;SHT31;63583;49.976;20.182;2023-04-25T03:14:38;9.22;96.44
75022;SHT31;63583;49.976;20.182;2023-04-25T03:17:04;9.20;95.84
75022;SHT31;63583;49.976;20.182;2023-04-25T03:19:30;9.14;95.90
75022;SHT31;63583;49.976;20.182;2023-04-25T03:21:55;9.18;96.02
75022;SHT31;63583;49.976;20.182;2023-04-25T03:24:21;9.04;96.09
75022;SHT31;63583;49.976;20.182;2023-04-25T03:26:47;9.15;96.27
75022;SHT31;63583;49.976;20.182;2023-04-25T03:29:12;9.14;95.70
75022;SHT31;63583;49.976;20.182;2023-04-25T03:31:38;9.18;96.08
75022;SHT31;63583;49.976;20.182;2023-04-25T03:34:04;9.11;96.05
75022;SHT31;63583;49.976;20.182;2023-04-25T03:36:29;9.18;96.06
75022;SHT31;63583;49.976;20.182;2023-04-25T03:38:55;9.08;96.16
75022;SHT31;63583;49.976;20.182;2023-04-25T03:41:20;9.14;96.62
75022;SHT31;63583;49.976;20.182;2023-04-25T03:43:46;9.04;97.02
75022;SHT31;63583;49.976;20.182;2023-04-25T03:46:12;9.07;97.19
75022;SHT31;63583;49.976;20.182;2023-04-25T03:48:37;9.15;97.53
75022;SHT31;63583;49.976;20.182;2023-04-25T03:51:03;9.18;97.06
75022;SHT31;63583;49.976;20.182;2023-04-25T03:53:29;9.19;97.17
75022;SHT31;63583;49.976;20.182;2023-04-25T03:55:54;9.16;97.38
75022;SHT31;63583;49.976;20.182;2023-04-25T03:58:20;9.19;97.45
75022;SHT31;63583;49.976;20.182;2023-04-25T04:00:45;9.22;97.47
75022;SHT31;63583;49.976;20.182;2023-04-25T04:03:11;9.29;97.07
75022;SHT31;63583;49.976;20.182;2023-04-25T04:05:37;9.35;96.87
75022;SHT31;63583;49.976;20.182;2023-04-25T04:08:06;9.30;96.90
75022;SHT31;63583;49.976;20.182;2023-04-25T04:10:31;9.38;97.07
75022;SHT31;63583;49.976;20.182;2023-04-25T04:12:57;9.23;96.88
75022;SHT31;63583;49.976;20.182;2023-04-25T04:15:22;9.28;96.69
75022;SHT31;63583;49.976;20.182;2023-04-25T04:17:48;9.29;96.81
75022;SHT31;63583;49.976;20.182;2023-04-25T04:20:14;9.29;96.11
75022;SHT31;63583;49.976;20.182;2023-04-25T04:22:40;9.20;96.20
75022;SHT31;63583;49.976;20.182;2023-04-25T04:25:05;9.18;96.46
75022;SHT31;63583;49.976;20.182;2023-04-25T04:27:32;9.15;97.00
75022;SHT31;63583;49.976;20.182;2023-04-25T04:29:58;9.07;97.31
75022;SHT31;63583;49.976;20.182;2023-04-25T04:32:24;9.07;96.91
75022;SHT31;63583;49.976;20.182;2023-04-25T04:34:50;9.11;96.88
75022;SHT31;63583;49.976;20.182;2023-04-25T04:37:17;9.09;96.62
75022;SHT31;63583;49.976;20.182;2023-04-25T04:39:43;9.12;96.11
75022;SHT31;63583;49.976;20.182;2023-04-25T04:42:09;9.01;96.32
75022;SHT31;63583;49.976;20.182;2023-04-25T04:44:36;9.04;95.62
75022;SHT31;63583;49.976;20.182;2023-04-25T04:47:04;8.97;95.80
75022;SHT31;63583;49.976;20.182;2023-04-25T04:49:32;8.84;95.99
75022;SHT31;63583;49.976;20.182;2023-04-25T04:51:57;8.82;96.10
75022;SHT31;63583;49.976;20.182;2023-04-25T04:54:25;8.75;96.19
75022;SHT31;63583;49.976;20.182;2023-04-25T04:56:51;8.87;95.86
75022;SHT31;63583;49.976;20.182;2023-04-25T04:59:17;8.78;95.58
75022;SHT31;63583;49.976;20.182;2023-04-25T05:01:43;8.71;95.99
75022;SHT31;63583;49.976;20.182;2023-04-25T05:04:08;8.78;95.73
75022;SHT31;63583;49.976;20.182;2023-04-25T05:06:34;8.80;95.73
75022;SHT31;63583;49.976;20.182;2023-04-25T05:08:59;8.78;95.63
75022;SHT31;63583;49.976;20.182;2023-04-25T05:11:25;8.82;95.79
75022;SHT31;63583;49.976;20.182;2023-04-25T05:13:52;8.68;95.95
75022;SHT31;63583;49.976;20.182;2023-04-25T05:16:18;8.74;96.39
75022;SHT31;63583;49.976;20.182;2023-04-25T05:18:44;8.75;96.30
75022;SHT31;63583;49.976;20.182;2023-04-25T05:21:10;8.78;96.23
75022;SHT31;63583;49.976;20.182;2023-04-25T05:23:35;8.65;96.74
75022;SHT31;63583;49.976;20.182;2023-04-25T05:26:01;8.72;97.30
75022;SHT31;63583;49.976;20.182;2023-04-25T05:28:26;8.84;96.63
75022;SHT31;63583;49.976;20.182;2023-04-25T05:30:52;8.78;96.08
75022;SHT31;63583;49.976;20.182;2023-04-25T05:33:18;8.72;95.73
75022;SHT31;63583;49.976;20.182;2023-04-25T05:35:44;8.82;96.08
75022;SHT31;63583;49.976;20.182;2023-04-25T05:38:10;8.87;95.98
75022;SHT31;63583;49.976;20.182;2023-04-25T05:40:36;8.84;96.17
75022;SHT31;63583;49.976;20.182;2023-04-25T05:43:01;8.84;96.31
75022;SHT31;63583;49.976;20.182;2023-04-25T05:45:27;8.87;95.67
75022;SHT31;63583;49.976;20.182;2023-04-25T05:47:53;8.82;95.83
75022;SHT31;63583;49.976;20.182;2023-04-25T05:50:18;8.88;95.44
75022;SHT31;63583;49.976;20.182;2023-04-25T05:52:44;8.80;95.08
75022;SHT31;63583;49.976;20.182;2023-04-25T05:55:09;8.68;94.45
75022;SHT31;63583;49.976;20.182;2023-04-25T05:57:35;8.68;94.50
75022;SHT31;63583;49.976;20.182;2023-04-25T06:00:01;8.57;93.51
75022;SHT31;63583;49.976;20.182;2023-04-25T06:02:26;8.50;94.62
75022;SHT31;63583;49.976;20.182;2023-04-25T06:04:52;8.42;93.88
75022;SHT31;63583;49.976;20.182;2023-04-25T06:07:18;8.39;94.45
75022;SHT31;63583;49.976;20.182;2023-04-25T06:09:45;8.34;94.24
75022;SHT31;63583;49.976;20.182;2023-04-25T06:12:11;8.23;92.78
75022;SHT31;63583;49.976;20.182;2023-04-25T06:14:37;8.16;92.39
75022;SHT31;63583;49.976;20.182;2023-04-25T06:17:03;8.21;93.58
75022;SHT31;63583;49.976;20.182;2023-04-25T06:19:34;8.06;93.87
75022;SHT31;63583;49.976;20.182;2023-04-25T06:22:00;7.96;93.28
75022;SHT31;63583;49.976;20.182;2023-04-25T06:24:26;7.88;93.73
75022;SHT31;63583;49.976;20.182;2023-04-25T06:26:52;7.81;93.74
75022;SHT31;63583;49.976;20.182;2023-04-25T06:29:18;7.81;94.36
75022;SHT31;63583;49.976;20.182;2023-04-25T06:31:44;7.78;94.44
75022;SHT31;63583;49.976;20.182;2023-04-25T06:34:10;7.84;94.70
75022;SHT31;63583;49.976;20.182;2023-04-25T06:36:35;7.77;94.08
75022;SHT31;63583;49.976;20.182;2023-04-25T06:39:01;7.75;94.78
75022;SHT31;63583;49.976;20.182;2023-04-25T06:41:26;7.64;94.28
75022;SHT31;63583;49.976;20.182;2023-04-25T06:43:52;7.74;94.68
75022;SHT31;63583;49.976;20.182;2023-04-25T06:46:18;7.70;94.48
75022;SHT31;63583;49.976;20.182;2023-04-25T06:48:43;7.77;94.64
75022;SHT31;63583;49.976;20.182;2023-04-25T06:51:09;7.73;93.73
75022;SHT31;63583;49.976;20.182;2023-04-25T06:53:35;7.78;94.20
75022;SHT31;63583;49.976;20.182;2023-04-25T06:56:00;7.71;93.52
75022;SHT31;63583;49.976;20.182;2023-04-25T06:58:26;7.70;92.89
75022;SHT31;63583;49.976;20.182;2023-04-25T07:00:52;7.82;93.07
75022;SHT31;63583;49.976;20.182;2023-04-25T07:03:17;7.84;93.15
75022;SHT31;63583;49.976;20.182;2023-04-25T07:05:43;7.85;92.15
75022;SHT31;63583;49.976;20.182;2023-04-25T07:08:09;7.84;92.71
75022;SHT31;63583;49.976;20.182;2023-04-25T07:10:34;7.88;92.75
75022;SHT31;63583;49.976;20.182;2023-04-25T07:13:00;7.98;93.04
75022;SHT31;63583;49.976;20.182;2023-04-25T07:15:26;8.05;93.44
75022;SHT31;63583;49.976;20.182;2023-04-25T07:17:51;8.13;92.92
75022;SHT31;63583;49.976;20.182;2023-04-25T07:20:17;8.17;92.16
75022;SHT31;63583;49.976;20.182;2023-04-25T07:22:43;8.25;91.67
75022;SHT31;63583;49.976;20.182;2023-04-25T07:25:12;8.34;92.15
75022;SHT31;63583;49.976;20.182;2023-04-25T07:27:37;8.33;92.09
75022;SHT31;63583;49.976;20.182;2023-04-25T07:30:04;8.36;91.58
75022;SHT31;63583;49.976;20.182;2023-04-25T07:32:31;8.47;91.52
75022;SHT31;63583;49.976;20.182;2023-04-25T07:34:56;8.47;91.93
75022;SHT31;63583;49.976;20.182;2023-04-25T07:37:22;8.47;91.72
75022;SHT31;63583;49.976;20.182;2023-04-25T07:39:47;8.47;91.55
75022;SHT31;63583;49.976;20.182;2023-04-25T07:42:13;8.54;91.74
75022;SHT31;63583;49.976;20.182;2023-04-25T07:44:39;8.60;91.74
75022;SHT31;63583;49.976;20.182;2023-04-25T07:47:06;8.75;92.77
75022;SHT31;63583;49.976;20.182;2023-04-25T07:49:35;8.98;91.79
75022;SHT31;63583;49.976;20.182;2023-04-25T07:52:02;9.15;92.13
75022;SHT31;63583;49.976;20.182;2023-04-25T07:54:28;9.18;92.27
75022;SHT31;63583;49.976;20.182;2023-04-25T07:56:54;9.23;91.01
75022;SHT31;63583;49.976;20.182;2023-04-25T07:59:20;9.19;88.95
75022;SHT31;63583;49.976;20.182;2023-04-25T08:01:45;9.04;88.09
75022;SHT31;63583;49.976;20.182;2023-04-25T08:04:11;8.88;87.85
75022;SHT31;63583;49.976;20.182;2023-04-25T08:06:36;8.92;89.01
75022;SHT31;63583;49.976;20.182;2023-04-25T08:09:02;8.87;87.51
75022;SHT31;63583;49.976;20.182;2023-04-25T08:11:28;9.04;88.50
75022;SHT31;63583;49.976;20.182;2023-04-25T08:13:54;9.12;86.37
75022;SHT31;63583;49.976;20.182;2023-04-25T08:16:20;9.20;86.67
75022;SHT31;63583;49.976;20.182;2023-04-25T08:18:45;9.15;84.26
75022;SHT31;63583;49.976;20.182;2023-04-25T08:21:11;9.29;84.90
75022;SHT31;63583;49.976;20.182;2023-04-25T08:23:38;9.19;82.93
75022;SHT31;63583;49.976;20.182;2023-04-25T08:26:04;9.05;82.90
75022;SHT31;63583;49.976;20.182;2023-04-25T08:28:31;9.12;83.67
75022;SHT31;63583;49.976;20.182;2023-04-25T08:30:57;9.02;81.92
75022;SHT31;63583;49.976;20.182;2023-04-25T08:33:22;9.08;83.46
75022;SHT31;63583;49.976;20.182;2023-04-25T08:35:48;9.22;82.40
75022;SHT31;63583;49.976;20.182;2023-04-25T08:38:14;9.05;79.97
75022;SHT31;63583;49.976;20.182;2023-04-25T08:40:40;9.04;83.04
75022;SHT31;63583;49.976;20.182;2023-04-25T08:43:07;8.97;83.14
75022;SHT31;63583;49.976;20.182;2023-04-25T08:45:40;8.93;85.56
75022;SHT31;63583;49.976;20.182;2023-04-25T08:48:12;8.84;83.98
75022;SHT31;63583;49.976;20.182;2023-04-25T08:50:51;8.67;83.54
75022;SHT31;63583;49.976;20.182;2023-04-25T08:53:22;8.64;82.69
75022;SHT31;63583;49.976;20.182;2023-04-25T08:55:49;8.60;82.95
75022;SHT31;63583;49.976;20.182;2023-04-25T08:58:16;8.72;84.91
75022;SHT31;63583;49.976;20.182;2023-04-25T09:00:43;8.81;83.75
75022;SHT31;63583;49.976;20.182;2023-04-25T09:03:10;8.97;84.37
75022;SHT31;63583;49.976;20.182;2023-04-25T09:05:36;8.99;82.20
75022;SHT31;63583;49.976;20.182;2023-04-25T09:08:02;9.16;82.82
75022;SHT31;63583;49.976;20.182;2023-04-25T09:10:27;9.25;83.06
75022;SHT31;63583;49.976;20.182;2023-04-25T09:13:07;9.16;81.63
75022;SHT31;63583;49.976;20.182;2023-04-25T09:18:12;8.98;84.48
75022;SHT31;63583;49.976;20.182;2023-04-25T09:20:44;8.97;84.46
75022;SHT31;63583;49.976;20.182;2023-04-25T09:23:10;8.84;84.55
75022;SHT31;63583;49.976;20.182;2023-04-25T09:25:36;8.65;84.51
75022;SHT31;63583;49.976;20.182;2023-04-25T09:28:05;8.54;86.45
75022;SHT31;63583;49.976;20.182;2023-04-25T09:30:33;8.44;86.26
75022;SHT31;63583;49.976;20.182;2023-04-25T09:33:07;8.42;87.50
75022;SHT31;63583;49.976;20.182;2023-04-25T09:35:40;8.40;87.78
75022;SHT31;63583;49.976;20.182;2023-04-25T09:38:10;8.46;88.50
75022;SHT31;63583;49.976;20.182;2023-04-25T09:40:45;8.33;88.55
75022;SHT31;63583;49.976;20.182;2023-04-25T09:43:21;8.32;89.67
75022;SHT31;63583;49.976;20.182;2023-04-25T09:45:47;8.36;88.95
75022;SHT31;63583;49.976;20.182;2023-04-25T09:48:20;8.28;88.65
75022;SHT31;63583;49.976;20.182;2023-04-25T09:51:13;8.32;88.50
75022;SHT31;63583;49.976;20.182;2023-04-25T09:53:45;8.28;88.38
75022;SHT31;63583;49.976;20.182;2023-04-25T09:56:12;8.22;88.57
75022;SHT31;63583;49.976;20.182;2023-04-25T09:58:40;8.25;88.98
75022;SHT31;63583;49.976;20.182;2023-04-25T10:01:07;8.28;89.19
75022;SHT31;63583;49.976;20.182;2023-04-25T10:03:35;8.21;89.15
75022;SHT31;63583;49.976;20.182;2023-04-25T10:06:03;8.29;89.58
75022;SHT31;63583;49.976;20.182;2023-04-25T10:08:32;8.30;89.43
75022;SHT31;63583;49.976;20.182;2023-04-25T10:11:03;8.32;89.30
75022;SHT31;63583;49.976;20.182;2023-04-25T10:13:31;8.30;88.44
75022;SHT31;63583;49.976;20.182;2023-04-25T10:15:58;8.39;89.27
75022;SHT31;63583;49.976;20.182;2023-04-25T10:18:25;8.46;89.34
75022;SHT31;63583;49.976;20.182;2023-04-25T10:20:56;8.46;89.25
75022;SHT31;63583;49.976;20.182;2023-04-25T10:23:23;8.54;88.36
75022;SHT31;63583;49.976;20.182;2023-04-25T10:25:50;8.64;88.97
75022;SHT31;63583;49.976;20.182;2023-04-25T10:28:17;8.72;88.45
75022;SHT31;63583;49.976;20.182;2023-04-25T10:31:07;8.82;88.15
75022;SHT31;63583;49.976;20.182;2023-04-25T10:33:34;8.95;89.28
75022;SHT31;63583;49.976;20.182;2023-04-25T10:36:14;9.07;88.80
75022;SHT31;63583;49.976;20.182;2023-04-25T10:38:42;8.95;88.24
75022;SHT31;63583;49.976;20.182;2023-04-25T10:41:10;8.81;86.24
75022;SHT31;63583;49.976;20.182;2023-04-25T10:49:01;8.72;88.33
75022;SHT31;63583;49.976;20.182;2023-04-25T10:51:36;8.78;87.88
75022;SHT31;63583;49.976;20.182;2023-04-25T10:54:06;8.84;86.53
75022;SHT31;63583;49.976;20.182;2023-04-25T10:59:09;9.15;86.13
75022;SHT31;63583;49.976;20.182;2023-04-25T11:01:39;9.26;82.07
75022;SHT31;63583;49.976;20.182;2023-04-25T11:04:05;9.35;82.94
75022;SHT31;63583;49.976;20.182;2023-04-25T11:06:42;9.40;81.84
75022;SHT31;63583;49.976;20.182;2023-04-25T11:09:11;9.49;79.60
75022;SHT31;63583;49.976;20.182;2023-04-25T11:11:39;9.39;77.89
75022;SHT31;63583;49.976;20.182;2023-04-25T11:14:05;9.30;77.84
75022;SHT31;63583;49.976;20.182;2023-04-25T11:16:31;9.25;80.87
75022;SHT31;63583;49.976;20.182;2023-04-25T11:18:58;9.23;80.51
75022;SHT31;63583;49.976;20.182;2023-04-25T11:21:25;9.25;81.05
75022;SHT31;63583;49.976;20.182;2023-04-25T11:23:54;9.30;80.46
75022;SHT31;63583;49.976;20.182;2023-04-25T11:26:20;9.33;81.40
75022;SHT31;63583;49.976;20.182;2023-04-25T11:28:46;9.40;80.69
75022;SHT31;63583;49.976;20.182;2023-04-25T11:31:12;9.49;79.45
75022;SHT31;63583;49.976;20.182;2023-04-25T11:33:38;9.63;79.43
75022;SHT31;63583;49.976;20.182;2023-04-25T11:36:06;9.74;79.54
75022;SHT31;63583;49.976;20.182;2023-04-25T11:38:32;9.80;77.42
75022;SHT31;63583;49.976;20.182;2023-04-25T11:40:57;9.81;76.93
75022;SHT31;63583;49.976;20.182;2023-04-25T11:43:25;9.93;78.10
75022;SHT31;63583;49.976;20.182;2023-04-25T11:45:51;9.91;73.78
75022;SHT31;63583;49.976;20.182;2023-04-25T11:48:18;9.98;74.67
75022;SHT31;63583;49.976;20.182;2023-04-25T11:50:44;9.91;74.35
75022;SHT31;63583;49.976;20.182;2023-04-25T11:53:10;9.84;74.85
75022;SHT31;63583;49.976;20.182;2023-04-25T11:55:36;9.81;77.12
75022;SHT31;63583;49.976;20.182;2023-04-25T11:58:03;9.87;77.03
75022;SHT31;63583;49.976;20.182;2023-04-25T12:00:30;9.88;76.95
75022;SHT31;63583;49.976;20.182;2023-04-25T12:02:57;9.95;76.28
75022;SHT31;63583;49.976;20.182;2023-04-25T12:05:30;9.94;77.38
75022;SHT31;63583;49.976;20.182;2023-04-25T12:07:56;9.95;76.18
75022;SHT31;63583;49.976;20.182;2023-04-25T12:10:24;9.90;75.62
75022;SHT31;63583;49.976;20.182;2023-04-25T12:12:50;9.69;76.23
75022;SHT31;63583;49.976;20.182;2023-04-25T12:15:18;9.63;76.07
75022;SHT31;63583;49.976;20.182;2023-04-25T12:17:49;9.57;77.99
75022;SHT31;63583;49.976;20.182;2023-04-25T12:20:16;9.54;78.71
75022;SHT31;63583;49.976;20.182;2023-04-25T12:22:44;9.56;78.89
75022;SHT31;63583;49.976;20.182;2023-04-25T12:25:35;9.53;79.03
75022;SHT31;63583;49.976;20.182;2023-04-25T12:28:15;9.54;79.27
75022;SHT31;63583;49.976;20.182;2023-04-25T12:30:58;9.47;79.09
75022;SHT31;63583;49.976;20.182;2023-04-25T12:33:25;9.50;80.58
75022;SHT31;63583;49.976;20.182;2023-04-25T12:35:55;9.46;82.83
75022;SHT31;63583;49.976;20.182;2023-04-25T12:38:29;9.36;81.96
75022;SHT31;63583;49.976;20.182;2023-04-25T12:40:56;9.43;80.09
75022;SHT31;63583;49.976;20.182;2023-04-25T12:43:22;9.35;82.28
75022;SHT31;63583;49.976;20.182;2023-04-25T12:45:52;9.35;82.00
75022;SHT31;63583;49.976;20.182;2023-04-25T12:48:18;9.28;83.02
75022;SHT31;63583;49.976;20.182;2023-04-25T12:50:44;9.26;83.00
75022;SHT31;63583;49.976;20.182;2023-04-25T12:53:13;9.26;80.63
75022;SHT31;63583;49.976;20.182;2023-04-25T12:55:38;9.23;81.57
75022;SHT31;63583;49.976;20.182;2023-04-25T12:58:04;9.04;81.10
75022;SHT31;63583;49.976;20.182;2023-04-25T13:00:30;8.99;82.60
75022;SHT31;63583;49.976;20.182;2023-04-25T13:02:56;8.93;82.13
75022;SHT31;63583;49.976;20.182;2023-04-25T13:05:21;8.85;84.30
75022;SHT31;63583;49.976;20.182;2023-04-25T13:07:47;8.78;85.45
75022;SHT31;63583;49.976;20.182;2023-04-25T13:10:13;8.74;84.02
75022;SHT31;63583;49.976;20.182;2023-04-25T13:12:39;8.68;85.57
75022;SHT31;63583;49.976;20.182;2023-04-25T13:15:05;8.50;86.16
75022;SHT31;63583;49.976;20.182;2023-04-25T13:17:32;8.37;82.84
75022;SHT31;63583;49.976;20.182;2023-04-25T13:19:57;8.30;82.04
75022;SHT31;63583;49.976;20.182;2023-04-25T13:22:23;8.23;84.14
75022;SHT31;63583;49.976;20.182;2023-04-25T13:24:49;8.25;86.41
75022;SHT31;63583;49.976;20.182;2023-04-25T13:27:14;8.33;87.58
75022;SHT31;63583;49.976;20.182;2023-04-25T13:29:40;8.40;86.44
75022;SHT31;63583;49.976;20.182;2023-04-25T13:32:06;8.42;88.24
75022;SHT31;63583;49.976;20.182;2023-04-25T13:34:32;8.50;88.43
75022;SHT31;63583;49.976;20.182;2023-04-25T13:36:58;8.61;86.37
75022;SHT31;63583;49.976;20.182;2023-04-25T13:39:24;8.59;85.95
75022;SHT31;63583;49.976;20.182;2023-04-25T13:41:49;8.51;87.14
75022;SHT31;63583;49.976;20.182;2023-04-25T13:44:15;8.51;87.73
75022;SHT31;63583;49.976;20.182;2023-04-25T13:46:41;8.46;86.90
75022;SHT31;63583;49.976;20.182;2023-04-25T13:49:07;8.46;88.08
75022;SHT31;63583;49.976;20.182;2023-04-25T13:51:33;8.44;87.30
75022;SHT31;63583;49.976;20.182;2023-04-25T13:53:58;8.42;89.27
75022;SHT31;63583;49.976;20.182;2023-04-25T13:56:24;8.30;86.83
75022;SHT31;63583;49.976;20.182;2023-04-25T13:58:50;8.30;87.38
75022;SHT31;63583;49.976;20.182;2023-04-25T14:01:17;8.28;88.99
75022;SHT31;63583;49.976;20.182;2023-04-25T14:03:43;8.40;89.54
75022;SHT31;63583;49.976;20.182;2023-04-25T14:06:09;8.39;88.04
75022;SHT31;63583;49.976;20.182;2023-04-25T14:08:34;8.44;87.80
75022;SHT31;63583;49.976;20.182;2023-04-25T14:11:00;8.51;87.61
75022;SHT31;63583;49.976;20.182;2023-04-25T14:13:26;8.59;88.17
75022;SHT31;63583;49.976;20.182;2023-04-25T14:15:52;8.67;87.44
75022;SHT31;63583;49.976;20.182;2023-04-25T14:18:18;8.74;84.63
75022;SHT31;63583;49.976;20.182;2023-04-25T14:20:45;8.82;84.32
75022;SHT31;63583;49.976;20.182;2023-04-25T14:23:10;8.85;85.66
75022;SHT31;63583;49.976;20.182;2023-04-25T14:25:36;8.93;86.03
75022;SHT31;63583;49.976;20.182;2023-04-25T14:28:02;8.98;85.56
75022;SHT31;63583;49.976;20.182;2023-04-25T14:30:28;9.05;86.58
75022;SHT31;63583;49.976;20.182;2023-04-25T14:32:53;9.12;85.91
75022;SHT31;63583;49.976;20.182;2023-04-25T14:35:19;9.18;85.47
75022;SHT31;63583;49.976;20.182;2023-04-25T14:37:45;9.14;85.42
75022;SHT31;63583;49.976;20.182;2023-04-25T14:40:12;9.11;85.74
75022;SHT31;63583;49.976;20.182;2023-04-25T14:42:41;9.15;85.54
75022;SHT31;63583;49.976;20.182;2023-04-25T14:45:08;9.08;86.78
75022;SHT31;63583;49.976;20.182;2023-04-25T14:47:36;9.08;86.95
75022;SHT31;63583;49.976;20.182;2023-04-25T14:50:03;9.01;88.37
75022;SHT31;63583;49.976;20.182;2023-04-25T14:52:29;9.02;87.28
75022;SHT31;63583;49.976;20.182;2023-04-25T14:54:56;9.01;86.21
75022;SHT31;63583;49.976;20.182;2023-04-25T14:57:21;8.95;87.07
75022;SHT31;63583;49.976;20.182;2023-04-25T14:59:47;8.98;87.21
75022;SHT31;63583;49.976;20.182;2023-04-25T15:02:13;8.95;88.15
75022;SHT31;63583;49.976;20.182;2023-04-25T15:04:38;8.93;89.60
75022;SHT31;63583;49.976;20.182;2023-04-25T15:07:05;8.99;89.48
75022;SHT31;63583;49.976;20.182;2023-04-25T15:09:30;8.98;88.64
75022;SHT31;63583;49.976;20.182;2023-04-25T15:11:57;8.97;88.18
75022;SHT31;63583;49.976;20.182;2023-04-25T15:14:23;9.05;86.91
75022;SHT31;63583;49.976;20.182;2023-04-25T15:16:48;9.08;86.83
75022;SHT31;63583;49.976;20.182;2023-04-25T15:19:14;9.01;87.39
75022;SHT31;63583;49.976;20.182;2023-04-25T15:21:40;9.07;90.71
75022;SHT31;63583;49.976;20.182;2023-04-25T15:24:06;9.02;90.27
75022;SHT31;63583;49.976;20.182;2023-04-25T15:26:31;9.15;89.74
75022;SHT31;63583;49.976;20.182;2023-04-25T15:28:57;9.12;88.85
75022;SHT31;63583;49.976;20.182;2023-04-25T15:31:23;9.14;89.93
75022;SHT31;63583;49.976;20.182;2023-04-25T15:33:48;9.14;89.63
75022;SHT31;63583;49.976;20.182;2023-04-25T15:36:14;9.02;90.84
75022;SHT31;63583;49.976;20.182;2023-04-25T15:38:42;8.87;89.56